Time;durP1;ratioP1;P1;durP2;ratioP2;P2;SDS_P1;SDS_P2;PMS_P1;PMS_P2;Temp;Humidity;BMP_temperature;BMP_pressure;BME280_temperature;BME280_humidity;BME280_pressure;Samples;Min_cycle;Max_cycle;Signal;HPM_P1;HPM_P2
2022/03/23 00:00:31;;;;;;;;;;;;;;;10.11;58.76;101222.41;4996645;28;19971;-65
2022/03/23 00:03:15;;;;;;;;;;;;;;;10.10;58.57;101225.81;4996750;28;19923;-64
2022/03/23 00:05:59;;;;;;;;;;;;;;;10.11;58.77;101220.72;4995740;28;19968;-65
2022/03/23 00:08:44;;;;;;;;;;;;;;;10.11;58.54;101218.13;4996240;28;19968;-64
2022/03/23 00:11:27;;;;;;;;;;;;;;;10.08;58.69;101225.78;4995923;28;20440;-65
2022/03/23 00:14:11;;;;;;;;;;;;;;;10.08;58.61;101228.38;4997024;28;19963;-64
2022/03/23 00:16:55;;;;;;;;;;;;;;;10.07;58.95;101249.91;4996065;28;20408;-64
2022/03/23 00:19:39;;;;;;;;;;;;;;;10.01;58.72;101250.56;4996348;28;19929;-65
2022/03/23 00:22:27;;;;;;;;;;;;;;;10.03;58.84;101251.53;4995374;28;19940;-64
2022/03/23 00:25:11;;;;;;;;;;;;;;;10.05;58.47;101254.16;4994923;28;19925;-65
2022/03/23 00:27:55;;;;;;;;;;;;;;;10.05;58.70;101244.66;4996187;28;19925;-64
2022/03/23 00:30:39;;;;;;;;;;;;;;;10.07;58.49;101244.75;4995478;28;19925;-65
2022/03/23 00:33:23;;;;;;;;;;;;;;;10.08;58.84;101243.91;4995890;28;19924;-64
2022/03/23 00:36:09;;;;;;;;;;;;;;;10.10;59.04;101237.09;4995955;28;19925;-65
2022/03/23 00:38:53;;;;;;;;;;;;;;;10.12;59.11;101242.31;4995559;28;19924;-64
2022/03/23 00:41:37;;;;;;;;;;;;;;;10.13;59.18;101241.50;4995942;28;20419;-65
2022/03/23 00:44:21;;;;;;;;;;;;;;;10.13;59.18;101238.91;4995746;28;20008;-65
2022/03/23 00:47:05;;;;;;;;;;;;;;;10.13;59.26;101242.34;4994982;28;19924;-65
2022/03/23 00:49:49;;;;;;;;;;;;;;;10.14;59.17;101240.66;4995732;28;20316;-65
2022/03/23 00:52:34;;;;;;;;;;;;;;;10.13;59.33;101238.91;4995490;28;19924;-65
2022/03/23 00:55:18;;;;;;;;;;;;;;;10.15;59.43;101247.63;4996206;28;19924;-65
2022/03/23 00:58:02;;;;;;;;;;;;;;;10.13;59.08;101244.06;4995081;28;19941;-64
2022/03/23 01:00:47;;;;;;;;;;;;;;;10.13;59.33;101254.44;4995434;28;19928;-65
2022/03/23 01:03:30;;;;;;;;;;;;;;;10.12;58.72;101250.09;4996253;28;19925;-64
2022/03/23 01:06:14;;;;;;;;;;;;;;;10.12;59.20;101257.84;4994970;28;19925;-64
2022/03/23 01:08:58;;;;;;;;;;;;;;;10.11;59.44;101257.00;4995094;28;20304;-65
2022/03/23 01:11:42;;;;;;;;;;;;;;;10.12;59.57;101248.34;4994861;28;20345;-65
2022/03/23 01:14:26;;;;;;;;;;;;;;;10.12;59.52;101258.72;4995528;28;19928;-65
2022/03/23 01:17:10;;;;;;;;;;;;;;;10.11;59.50;101249.22;4995671;28;19925;-65
2022/03/23 01:19:54;;;;;;;;;;;;;;;10.12;59.69;101252.66;4994903;28;20368;-65
2022/03/23 01:22:39;;;;;;;;;;;;;;;10.12;59.35;101252.66;4995647;28;20356;-65
2022/03/23 01:25:23;;;;;;;;;;;;;;;10.10;59.71;101250.03;4994643;28;19960;-64
2022/03/23 01:28:09;;;;;;;;;;;;;;;10.11;59.61;101249.22;4994985;28;19924;-65
2022/03/23 01:30:53;;;;;;;;;;;;;;;10.11;59.44;101246.63;4994711;28;19960;-65
2022/03/23 01:33:37;;;;;;;;;;;;;;;10.10;59.55;101237.09;4995120;28;20384;-65
2022/03/23 01:36:21;;;;;;;;;;;;;;;10.09;59.75;101237.91;4994025;28;20421;-65
2022/03/23 01:39:04;;;;;;;;;;;;;;;10.10;59.60;101238.78;4994842;28;19963;-64
2022/03/23 01:41:48;;;;;;;;;;;;;;;10.09;59.74;101235.31;4994918;28;19925;-65
2022/03/23 01:44:32;;;;;;;;;;;;;;;10.09;59.53;101235.31;4994974;28;19971;-65
2022/03/23 01:47:17;;;;;;;;;;;;;;;10.09;59.64;101234.41;4994446;28;20020;-65
2022/03/23 01:50:03;;;;;;;;;;;;;;;10.06;59.58;101230.03;4994896;28;19988;-65
2022/03/23 01:52:47;;;;;;;;;;;;;;;10.05;59.57;101241.19;4994222;28;20333;-65
2022/03/23 01:55:31;;;;;;;;;;;;;;;10.04;59.54;101237.72;4994376;28;19924;-64
2022/03/23 01:58:16;;;;;;;;;;;;;;;10.04;59.29;101226.47;4994132;28;20324;-65
2022/03/23 02:00:59;;;;;;;;;;;;;;;10.04;59.65;101229.94;4994224;28;19924;-64
2022/03/23 02:03:44;;;;;;;;;;;;;;;10.04;59.42;101229.94;4994814;28;19972;-64
2022/03/23 02:06:28;;;;;;;;;;;;;;;10.04;59.67;101221.31;4994914;28;20072;-64
2022/03/23 02:09:12;;;;;;;;;;;;;;;10.04;59.73;101216.13;4994620;28;20009;-64
2022/03/23 02:11:56;;;;;;;;;;;;;;;10.05;59.64;101225.66;4993809;28;20016;-65
2022/03/23 02:14:40;;;;;;;;;;;;;;;10.04;59.69;101216.13;4994368;28;20384;-65
2022/03/23 02:17:24;;;;;;;;;;;;;;;10.03;59.49;101217.84;4993682;28;19924;-65
2022/03/23 02:20:10;;;;;;;;;;;;;;;10.03;59.37;101215.25;4993486;28;19925;-65
2022/03/23 02:22:54;;;;;;;;;;;;;;;10.03;59.30;101212.66;4993719;28;19924;-64
2022/03/23 02:25:39;;;;;;;;;;;;;;;10.03;59.79;101215.25;4993662;28;19972;-65
2022/03/23 02:28:23;;;;;;;;;;;;;;;10.02;59.61;101210.91;4993162;28;19924;-65
2022/03/23 02:31:07;;;;;;;;;;;;;;;10.02;59.66;101210.00;4993400;28;19968;-65
2022/03/23 02:33:52;;;;;;;;;;;;;;;10.02;59.67;101213.50;4994363;28;19924;-65
2022/03/23 02:36:36;;;;;;;;;;;;;;;10.02;59.45;101204.81;4994510;28;20484;-65
2022/03/23 02:39:20;;;;;;;;;;;;;;;10.01;59.55;101206.53;4994537;28;19925;-64
2022/03/23 02:42:04;;;;;;;;;;;;;;;10.02;59.76;101204.81;4994157;28;19925;-65
2022/03/23 02:44:48;;;;;;;;;;;;;;;10.02;59.35;101204.81;4994114;28;20435;-64
2022/03/23 02:47:32;;;;;;;;;;;;;;;10.01;59.58;101208.25;4994256;28;19925;-65
2022/03/23 02:50:15;;;;;;;;;;;;;;;10.01;59.59;101203.97;4992774;28;19964;-64
2022/03/23 03:02:22;;;;;;;;;;;;;;;9.98;59.63;101201.25;4993764;28;20427;-65
2022/03/23 03:05:08;;;;;;;;;;;;;;;9.98;59.81;101200.34;4993998;28;20300;-64
2022/03/23 03:10:55;;;;;;;;;;;;;;;9.98;59.58;101210.72;4994344;28;20320;-64
2022/03/23 03:13:39;;;;;;;;;;;;;;;9.97;59.75;101209.84;4994106;28;19925;-64
2022/03/23 03:16:23;;;;;;;;;;;;;;;9.95;59.74;101218.38;4994308;28;19925;-64
2022/03/23 03:19:09;;;;;;;;;;;;;;;9.94;59.91;101209.72;4994336;28;19924;-65
2022/03/23 03:21:53;;;;;;;;;;;;;;;9.93;59.50;101218.31;4993364;28;19940;-64
2022/03/23 03:24:37;;;;;;;;;;;;;;;9.92;59.53;101221.72;4994078;28;19925;-65
2022/03/23 03:27:21;;;;;;;;;;;;;;;9.90;59.86;101213.91;4993914;28;19925;-65
2022/03/23 03:30:06;;;;;;;;;;;;;;;9.88;59.74;101212.09;4994414;28;19925;-65
2022/03/23 03:32:49;;;;;;;;;;;;;;;9.86;59.60;101216.34;4997593;28;19980;-65
2022/03/23 03:35:33;;;;;;;;;;;;;;;9.85;59.70;101230.97;4997322;28;19924;-64
2022/03/23 03:38:18;;;;;;;;;;;;;;;9.84;59.31;101223.16;4997605;28;19926;-65
2022/03/23 03:41:02;;;;;;;;;;;;;;;9.83;59.62;101230.03;4996427;28;20298;-64
2022/03/23 03:43:46;;;;;;;;;;;;;;;9.84;59.46;101225.75;4996650;28;19928;-65
2022/03/23 03:46:30;;;;;;;;;;;;;;;9.84;59.36;101228.34;4996936;28;19925;-65
2022/03/23 03:49:15;;;;;;;;;;;;;;;9.84;59.28;101230.94;4997089;28;19964;-64
2022/03/23 03:51:59;;;;;;;;;;;;;;;9.83;59.30;101230.03;4996085;28;19925;-64
2022/03/23 03:54:44;;;;;;;;;;;;;;;9.83;59.42;101230.03;4996556;28;19924;-65
2022/03/23 03:57:27;;;;;;;;;;;;;;;9.83;59.84;101235.19;4996782;28;19925;-65
2022/03/23 04:00:12;;;;;;;;;;;;;;;9.85;59.81;101230.09;4996966;28;20009;-65
2022/03/23 04:02:56;;;;;;;;;;;;;;;9.84;59.85;101233.50;4997127;28;20543;-64
2022/03/23 04:05:40;;;;;;;;;;;;;;;9.84;59.47;101229.19;4995878;28;20296;-64
2022/03/23 04:08:24;;;;;;;;;;;;;;;9.83;59.44;101239.50;4996620;28;19979;-65
2022/03/23 04:11:08;;;;;;;;;;;;;;;9.83;59.41;101235.19;4997086;28;19924;-65
2022/03/23 04:13:52;;;;;;;;;;;;;;;9.82;59.43;101232.56;4995798;28;19972;-65
2022/03/23 04:16:36;;;;;;;;;;;;;;;9.81;59.66;101231.66;4996749;28;20396;-65
2022/03/23 04:19:20;;;;;;;;;;;;;;;9.81;59.77;101236.84;4996555;28;19973;-65
2022/03/23 04:22:04;;;;;;;;;;;;;;;9.81;59.72;101243.75;4996019;28;19941;-64
2022/03/23 04:24:48;;;;;;;;;;;;;;;9.81;59.68;101241.16;4996568;28;19972;-64
2022/03/23 04:27:34;;;;;;;;;;;;;;;9.81;59.64;101248.94;4996364;28;19924;-65
2022/03/23 04:30:18;;;;;;;;;;;;;;;9.81;59.82;101241.16;4994841;28;19940;-65
2022/03/23 04:33:02;;;;;;;;;;;;;;;9.80;59.88;101242.88;4996486;28;20328;-65
2022/03/23 04:35:46;;;;;;;;;;;;;;;9.80;59.74;101244.56;4996649;28;20068;-64
2022/03/23 04:38:29;;;;;;;;;;;;;;;9.79;59.44;101250.56;4995068;28;20016;-65
2022/03/23 04:41:13;;;;;;;;;;;;;;;9.80;59.49;101244.56;4995084;28;20008;-64
2022/03/23 04:43:58;;;;;;;;;;;;;;;9.79;59.76;101250.56;4995883;28;19925;-64
2022/03/23 04:46:41;;;;;;;;;;;;;;;9.79;59.75;101253.16;4995840;28;20344;-64
2022/03/23 04:49:25;;;;;;;;;;;;;;;9.79;59.82;101258.34;4995065;28;20305;-64
2022/03/23 04:52:11;;;;;;;;;;;;;;;9.77;59.80;101253.13;4995052;28;19925;-65
2022/03/23 04:54:59;;;;;;;;;;;;;;;9.78;59.96;101252.28;4995799;28;20286;-64
2022/03/23 04:57:43;;;;;;;;;;;;;;;9.75;59.84;101253.03;4994723;28;19972;-65
2022/03/23 05:00:27;;;;;;;;;;;;;;;9.73;59.84;101254.69;4995751;28;19964;-65
2022/03/23 05:03:13;;;;;;;;;;;;;;;9.74;59.42;101260.75;4994172;28;19971;-64
2022/03/23 05:05:57;;;;;;;;;;;;;;;9.74;59.55;101255.56;4994934;28;19986;-64
2022/03/23 05:08:41;;;;;;;;;;;;;;;9.73;59.92;101253.81;4994592;28;19924;-65
2022/03/23 05:11:25;;;;;;;;;;;;;;;9.72;59.80;101255.53;4995108;28;19925;-64
2022/03/23 05:14:09;;;;;;;;;;;;;;;9.72;59.89;101258.13;4995817;28;19923;-65
2022/03/23 05:16:52;;;;;;;;;;;;;;;9.72;59.50;101267.56;4995505;28;19925;-64
2022/03/23 05:19:36;;;;;;;;;;;;;;;9.71;59.56;101261.53;4995214;28;19968;-64
2022/03/23 05:22:21;;;;;;;;;;;;;;;9.71;59.59;101266.72;4995379;28;19924;-65
2022/03/23 05:25:06;;;;;;;;;;;;;;;9.71;59.46;101263.22;4994940;28;19972;-64
2022/03/23 05:27:50;;;;;;;;;;;;;;;9.70;59.62;101264.03;4995093;28;20032;-64
2022/03/23 05:30:34;;;;;;;;;;;;;;;9.70;59.76;101264.03;4994709;28;19972;-64
2022/03/23 05:33:18;;;;;;;;;;;;;;;9.69;59.35;101263.16;4993973;28;20016;-64
2022/03/23 05:36:02;;;;;;;;;;;;;;;9.68;59.55;101266.59;4995000;28;19967;-65
2022/03/23 05:38:46;;;;;;;;;;;;;;;9.68;59.63;101271.75;4994878;28;20408;-65
2022/03/23 05:41:30;;;;;;;;;;;;;;;9.70;59.79;101277.88;4993870;28;19939;-65
2022/03/23 05:44:14;;;;;;;;;;;;;;;9.68;59.62;101273.44;4995104;28;19980;-65
2022/03/23 05:46:59;;;;;;;;;;;;;;;9.67;59.87;101272.56;4994499;28;19941;-65
2022/03/23 05:49:43;;;;;;;;;;;;;;;9.67;59.85;101275.16;4993871;28;19940;-64
2022/03/23 05:52:27;;;;;;;;;;;;;;;9.67;59.82;101277.75;4994196;28;19929;-64
2022/03/23 05:55:11;;;;;;;;;;;;;;;9.67;59.85;101275.16;4995078;28;19940;-64
2022/03/23 05:57:55;;;;;;;;;;;;;;;9.66;59.68;101278.56;4994958;28;19991;-64
2022/03/23 06:00:39;;;;;;;;;;;;;;;9.65;59.50;101276.81;4993581;28;19924;-64
2022/03/23 06:03:23;;;;;;;;;;;;;;;9.64;59.96;101277.63;4994701;28;19940;-65
2022/03/23 06:06:06;;;;;;;;;;;;;;;9.66;60.04;101282.84;4994917;28;19968;-65
2022/03/23 06:08:50;;;;;;;;;;;;;;;9.66;59.95;101282.84;4994299;28;20396;-65
2022/03/23 06:11:34;;;;;;;;;;;;;;;9.64;59.92;101275.03;4993653;28;20411;-64
2022/03/23 06:14:18;;;;;;;;;;;;;;;9.65;59.73;101281.13;4994628;28;19925;-65
2022/03/23 06:17:02;;;;;;;;;;;;;;;9.63;59.70;101275.84;4994649;28;19925;-65
2022/03/23 06:19:46;;;;;;;;;;;;;;;9.62;59.63;101284.44;4994722;28;20468;-65
2022/03/23 06:22:30;;;;;;;;;;;;;;;9.61;59.54;101280.09;4994561;28;20357;-64
2022/03/23 06:25:14;;;;;;;;;;;;;;;9.60;59.60;101283.50;4993855;28;20396;-65
2022/03/23 06:27:57;;;;;;;;;;;;;;;9.60;59.70;101288.69;4994854;28;19925;-65
2022/03/23 06:30:42;;;;;;;;;;;;;;;9.58;59.72;101291.22;4993498;28;19964;-65
2022/03/23 06:33:26;;;;;;;;;;;;;;;9.58;59.62;101280.88;4993257;28;19988;-64
2022/03/23 06:36:10;;;;;;;;;;;;;;;9.56;59.47;101290.25;4994411;28;20008;-65
2022/03/23 06:38:54;;;;;;;;;;;;;;;9.54;59.66;101291.91;4994336;28;20388;-64
2022/03/23 06:41:37;;;;;;;;;;;;;;;9.55;59.88;101291.09;4994315;28;19924;-65
2022/03/23 06:44:21;;;;;;;;;;;;;;;9.54;59.75;101299.66;4994122;28;19924;-64
2022/03/23 06:47:05;;;;;;;;;;;;;;;9.54;60.07;101304.84;4994458;28;19925;-64
2022/03/23 06:49:49;;;;;;;;;;;;;;;9.56;59.84;101303.22;4993720;28;19949;-65
2022/03/23 06:52:33;;;;;;;;;;;;;;;9.55;59.59;101303.16;4994344;28;20388;-65
2022/03/23 06:55:17;;;;;;;;;;;;;;;9.55;59.80;101306.63;4994581;28;19940;-64
2022/03/23 06:58:01;;;;;;;;;;;;;;;9.57;59.77;101312.75;4994354;28;19925;-65
2022/03/23 07:00:45;;;;;;;;;;;;;;;9.57;59.93;101314.47;4994353;28;20396;-64
2022/03/23 07:03:29;;;;;;;;;;;;;;;9.58;59.98;101311.03;4994356;28;20396;-65
2022/03/23 07:06:16;;;;;;;;;;;;;;;9.57;59.87;101314.47;4996802;28;20000;-64
2022/03/23 07:12:05;;;;;;;;;;;;;;;9.58;59.91;101323.97;4997789;28;19972;-64
2022/03/23 07:14:49;;;;;;;;;;;;;;;9.55;59.55;101316.97;4997012;28;19924;-64
2022/03/23 07:17:33;;;;;;;;;;;;;;;9.54;59.79;101325.56;4997517;28;19941;-65
2022/03/23 07:20:18;;;;;;;;;;;;;;;9.54;59.67;101327.28;4997555;28;19924;-65
2022/03/23 07:23:02;;;;;;;;;;;;;;;9.51;60.04;101324.56;4997000;28;19924;-64
2022/03/23 07:25:47;;;;;;;;;;;;;;;9.49;59.27;101333.94;4997629;28;19924;-65
2022/03/23 07:28:31;;;;;;;;;;;;;;;9.48;59.29;101330.50;4996356;28;19940;-64
2022/03/23 07:31:15;;;;;;;;;;;;;;;9.47;59.31;101338.19;4996537;28;19924;-64
2022/03/23 07:34:02;;;;;;;;;;;;;;;9.46;59.38;101339.91;4997352;28;19996;-64
2022/03/23 07:36:47;;;;;;;;;;;;;;;9.45;59.42;101336.41;4997156;28;19925;-65
2022/03/23 07:39:31;;;;;;;;;;;;;;;9.45;58.97;101332.94;4996497;28;19964;-64
2022/03/23 07:42:17;;;;;;;;;;;;;;;9.43;59.03;101343.22;4996217;28;20097;-64
2022/03/23 07:45:00;;;;;;;;;;;;;;;9.43;58.91;101340.63;4996541;28;20337;-64
2022/03/23 07:47:45;;;;;;;;;;;;;;;9.44;59.26;101341.53;4997243;28;20343;-64
2022/03/23 07:50:29;;;;;;;;;;;;;;;9.45;58.93;101345.88;4996080;28;20009;-65
2022/03/23 07:53:13;;;;;;;;;;;;;;;9.45;59.05;101351.06;4995823;28;19925;-65
2022/03/23 07:55:57;;;;;;;;;;;;;;;9.45;58.95;101357.09;4996871;28;19983;-64
2022/03/23 07:58:41;;;;;;;;;;;;;;;9.48;59.03;101363.25;4996883;28;20337;-64
2022/03/23 08:01:25;;;;;;;;;;;;;;;9.49;59.17;101370.19;4997032;28;19925;-65
2022/03/23 08:04:10;;;;;;;;;;;;;;;9.50;59.09;101370.22;4996058;28;19925;-65
2022/03/23 08:07:02;;;;;;;;;;;;;;;9.50;59.17;101366.78;4995883;28;19929;-65
2022/03/23 08:09:46;;;;;;;;;;;;;;;9.50;59.19;101369.38;4995773;28;19924;-66
2022/03/23 08:12:30;;;;;;;;;;;;;;;9.50;59.20;101365.06;4995720;28;20292;-64
2022/03/23 08:15:16;;;;;;;;;;;;;;;9.51;59.52;101361.66;4995871;28;19924;-64
2022/03/23 08:18:00;;;;;;;;;;;;;;;9.52;59.44;101371.19;4995483;28;19924;-65
2022/03/23 08:20:45;;;;;;;;;;;;;;;9.52;59.36;101367.72;4996619;28;19924;-65
2022/03/23 08:23:30;;;;;;;;;;;;;;;9.54;59.52;101373.84;4996047;28;20016;-64
2022/03/23 08:26:14;;;;;;;;;;;;;;;9.54;59.57;101373.84;4995905;28;19924;-64
2022/03/23 08:28:58;;;;;;;;;;;;;;;9.55;59.54;101380.81;4995524;28;19925;-64
2022/03/23 08:31:42;;;;;;;;;;;;;;;9.56;59.90;101364.47;4995376;28;19925;-64
2022/03/23 08:34:26;;;;;;;;;;;;;;;9.58;59.73;101374.03;4994946;28;20368;-64
2022/03/23 08:37:10;;;;;;;;;;;;;;;9.58;59.72;101374.03;4996061;28;19956;-64
2022/03/23 08:39:54;;;;;;;;;;;;;;;9.60;59.78;101375.00;4995601;28;19964;-64
2022/03/23 08:42:38;;;;;;;;;;;;;;;9.63;60.05;101373.34;4996167;28;20007;-64
2022/03/23 08:45:22;;;;;;;;;;;;;;;9.65;59.71;101374.31;4994862;28;19924;-64
2022/03/23 08:48:06;;;;;;;;;;;;;;;9.66;59.78;101371.78;4995558;28;19979;-64
2022/03/23 08:50:50;;;;;;;;;;;;;;;9.69;60.04;101374.50;4995522;28;19924;-64
2022/03/23 08:53:34;;;;;;;;;;;;;;;9.70;60.06;101380.53;4994910;28;19972;-64
2022/03/23 08:56:18;;;;;;;;;;;;;;;9.72;60.06;101379.78;4995931;28;19925;-64
2022/03/23 08:59:02;;;;;;;;;;;;;;;9.73;59.89;101376.34;4995331;28;19924;-64
2022/03/23 09:01:47;;;;;;;;;;;;;;;9.77;59.89;101373.91;4995689;28;19924;-64
2022/03/23 09:04:31;;;;;;;;;;;;;;;9.80;60.02;101379.22;4995742;28;19924;-64
2022/03/23 09:07:15;;;;;;;;;;;;;;;9.80;60.34;101374.94;4995337;28;19924;-64
2022/03/23 09:10:00;;;;;;;;;;;;;;;9.83;60.25;101377.63;4995152;28;19925;-64
2022/03/23 09:12:44;;;;;;;;;;;;;;;9.87;59.89;101373.47;4995851;28;19924;-64
2022/03/23 09:15:28;;;;;;;;;;;;;;;9.89;60.08;101376.97;4995220;28;20447;-64
2022/03/23 09:18:12;;;;;;;;;;;;;;;9.91;60.39;101377.94;4994933;28;19925;-64
2022/03/23 09:20:56;;;;;;;;;;;;;;;9.94;60.33;101378.06;4995203;28;19925;-65
2022/03/23 09:23:40;;;;;;;;;;;;;;;9.96;60.00;101380.72;4994545;28;19940;-64
2022/03/23 09:26:24;;;;;;;;;;;;;;;9.99;60.39;101386.91;4994497;28;20445;-64
2022/03/23 09:29:08;;;;;;;;;;;;;;;10.01;60.20;101380.09;4994810;28;20040;-65
2022/03/23 09:31:52;;;;;;;;;;;;;;;10.05;60.02;101381.06;4994227;28;20481;-65
2022/03/23 09:34:36;;;;;;;;;;;;;;;10.07;60.15;101379.44;4995276;28;20423;-64
2022/03/23 09:40:28;;;;;;;;;;;;;;;10.10;60.36;101374.38;4994819;28;19963;-64
2022/03/23 09:43:11;;;;;;;;;;;;;;;10.13;60.46;101378.78;4993937;28;20384;-64
2022/03/23 09:45:56;;;;;;;;;;;;;;;10.13;60.43;101377.06;4994842;28;20290;-64
2022/03/23 09:48:40;;;;;;;;;;;;;;;10.15;60.49;101378.00;4994767;28;19968;-64
2022/03/23 09:51:25;;;;;;;;;;;;;;;10.16;60.37;101382.38;4994837;28;20423;-64
2022/03/23 09:54:09;;;;;;;;;;;;;;;10.19;60.36;101372.13;4994272;28;19968;-64
2022/03/23 09:56:53;;;;;;;;;;;;;;;10.24;60.49;101374.03;4994956;28;20320;-64
2022/03/23 09:59:37;;;;;;;;;;;;;;;10.27;60.20;101381.94;4995174;28;19928;-64
2022/03/23 10:02:47;;;;;;;;;;;;;;;10.29;60.35;101377.66;4993519;28;19924;-64
2022/03/23 10:05:49;;;;;;;;;;;;;;;10.33;59.99;101380.44;4993676;28;20003;-65
2022/03/23 10:08:52;;;;;;;;;;;;;;;10.36;60.00;101375.34;4993569;28;19924;-65
2022/03/23 10:11:55;;;;;;;;;;;;;;;10.38;60.21;101375.47;4993887;28;19924;-64
2022/03/23 10:14:51;;;;;;;;;;;;;;;10.41;60.42;101377.28;4993604;28;20056;-64
2022/03/23 10:17:44;;;;;;;;;;;;;;;10.43;60.08;101378.22;4994176;28;20360;-64
2022/03/23 10:20:28;;;;;;;;;;;;;;;10.46;60.40;101378.34;4994603;28;19944;-64
2022/03/23 10:23:12;;;;;;;;;;;;;;;10.46;60.30;101370.56;4994744;28;19926;-65
2022/03/23 10:25:57;;;;;;;;;;;;;;;10.47;60.23;101375.81;4994313;28;19924;-65
2022/03/23 10:28:41;;;;;;;;;;;;;;;10.49;60.03;101378.47;4994714;28;19976;-64
2022/03/23 10:31:26;;;;;;;;;;;;;;;10.51;60.44;101380.28;4994086;28;20404;-64
2022/03/23 10:34:11;;;;;;;;;;;;;;;10.56;60.00;101385.63;4993954;28;19984;-64
2022/03/23 10:36:56;;;;;;;;;;;;;;;10.59;59.98;101377.13;4993281;28;20407;-64
2022/03/23 10:39:40;;;;;;;;;;;;;;;10.62;59.99;101380.69;4995686;28;19941;-64
2022/03/23 10:42:26;;;;;;;;;;;;;;;10.64;59.95;101373.88;4997943;28;19971;-64
2022/03/23 10:45:18;;;;;;;;;;;;;;;10.68;59.89;101377.44;4997501;28;19925;-64
2022/03/23 10:48:10;;;;;;;;;;;;;;;10.69;59.94;101374.03;4997389;28;19973;-64
2022/03/23 10:50:55;;;;;;;;;;;;;;;10.73;59.96;101372.41;4996998;28;20329;-64
2022/03/23 10:53:40;;;;;;;;;;;;;;;10.76;59.97;101380.31;4998531;28;20014;-64
2022/03/23 10:56:42;;;;;;;;;;;;;;;10.74;59.85;101374.19;4997740;28;19941;-64
2022/03/23 10:59:26;;;;;;;;;;;;;;;10.74;60.33;101376.78;4997099;28;19967;-64
2022/03/23 11:02:10;;;;;;;;;;;;;;;10.73;59.87;101375.00;4997844;28;19925;-64
2022/03/23 11:04:56;;;;;;;;;;;;;;;10.74;59.99;101371.59;4997585;28;20000;-64
2022/03/23 11:07:40;;;;;;;;;;;;;;;10.75;59.87;101373.38;4997164;28;19924;-64
2022/03/23 11:16:35;;;;;;;;;;;;;;;10.75;60.08;101376.81;4997754;28;20286;-64
2022/03/23 11:19:24;;;;;;;;;;;;;;;10.76;59.95;101376.00;4997778;28;20338;-64
2022/03/23 11:22:11;;;;;;;;;;;;;;;10.76;59.95;101368.22;4996405;28;19924;-64
2022/03/23 11:24:55;;;;;;;;;;;;;;;10.78;60.05;101370.88;4996808;28;20024;-64
2022/03/23 11:27:40;;;;;;;;;;;;;;;10.78;60.26;101370.88;4997793;28;20024;-64
2022/03/23 11:30:24;;;;;;;;;;;;;;;10.80;60.17;101364.06;4996082;28;20065;-64
2022/03/23 11:33:12;;;;;;;;;;;;;;;10.81;59.92;101363.22;4997344;28;20285;-64
2022/03/23 11:35:56;;;;;;;;;;;;;;;10.82;60.37;101360.66;4996497;28;20332;-64
2022/03/23 11:38:40;;;;;;;;;;;;;;;10.83;60.30;101358.94;4997196;28;19924;-64
2022/03/23 11:41:24;;;;;;;;;;;;;;;10.85;60.06;101351.25;4997063;28;19925;-65
2022/03/23 11:44:09;;;;;;;;;;;;;;;10.87;59.79;101349.59;4997324;28;19945;-64
2022/03/23 11:47:11;;;;;;;;;;;;;;;10.87;60.28;101353.06;4996568;28;19925;-64
2022/03/23 11:50:19;;;;;;;;;;;;;;;10.87;60.06;101345.28;4995928;28;20057;-64
2022/03/23 11:53:19;;;;;;;;;;;;;;;10.90;60.06;101347.13;4996953;28;19976;-65
2022/03/23 11:56:04;;;;;;;;;;;;;;;10.91;60.01;101354.03;4997102;28;20356;-64
2022/03/23 11:58:48;;;;;;;;;;;;;;;10.92;60.29;101340.25;4996222;28;20400;-64
2022/03/23 12:01:32;;;;;;;;;;;;;;;10.93;60.05;101340.31;4997110;28;19925;-64
2022/03/23 12:04:18;;;;;;;;;;;;;;;10.93;59.76;101342.91;4996948;28;19925;-64
2022/03/23 12:07:06;;;;;;;;;;;;;;;10.94;59.83;101338.59;4996381;28;20332;-64
2022/03/23 12:09:50;;;;;;;;;;;;;;;10.95;60.10;101328.28;4995825;28;20013;-64
2022/03/23 12:12:38;;;;;;;;;;;;;;;10.94;59.89;101323.91;4996892;28;20020;-64
2022/03/23 12:15:25;;;;;;;;;;;;;;;10.95;59.94;101330.88;4996507;28;20013;-64
2022/03/23 12:18:09;;;;;;;;;;;;;;;10.94;60.09;101318.75;4995697;28;19924;-64
2022/03/23 12:20:54;;;;;;;;;;;;;;;10.96;59.78;101327.47;4995607;28;19964;-64
2022/03/23 12:23:48;;;;;;;;;;;;;;;10.94;60.03;101321.31;4996240;28;19999;-64
2022/03/23 12:26:37;;;;;;;;;;;;;;;10.96;59.81;101313.59;4995530;28;19925;-64
2022/03/23 12:29:23;;;;;;;;;;;;;;;10.96;60.14;101317.09;4995346;28;19967;-64
2022/03/23 12:32:08;;;;;;;;;;;;;;;10.96;60.15;101314.50;4995364;28;19975;-64
2022/03/23 12:34:54;;;;;;;;;;;;;;;11.00;60.22;101311.97;4995614;28;19925;-64
2022/03/23 12:37:39;;;;;;;;;;;;;;;10.99;59.86;101303.31;4995546;28;19984;-64
2022/03/23 12:40:35;;;;;;;;;;;;;;;10.99;59.80;101305.03;4995530;28;19968;-64
2022/03/23 12:43:36;;;;;;;;;;;;;;;10.98;59.69;101309.34;4996490;28;19924;-64
2022/03/23 12:46:21;;;;;;;;;;;;;;;10.98;59.79;101301.56;4995121;28;20301;-65
2022/03/23 12:58:25;;;;;;;;;;;;;;;10.99;59.55;101299.81;4995882;28;19925;-65
2022/03/23 13:01:19;;;;;;;;;;;;;;;11.02;59.70;101285.28;4995179;28;20017;-65
2022/03/23 13:04:04;;;;;;;;;;;;;;;11.03;59.58;101280.94;4994635;28;19940;-64
2022/03/23 13:06:48;;;;;;;;;;;;;;;11.02;59.78;101281.78;4995962;28;19928;-64
2022/03/23 13:09:32;;;;;;;;;;;;;;;11.02;60.10;101289.56;4994277;28;19928;-65
2022/03/23 13:12:22;;;;;;;;;;;;;;;11.00;60.06;101280.84;4994551;28;20391;-64
2022/03/23 13:15:11;;;;;;;;;;;;;;;11.01;59.64;101280.03;4993991;28;20467;-64
2022/03/23 13:17:56;;;;;;;;;;;;;;;11.00;59.90;101275.66;4994313;28;19943;-64
2022/03/23 13:20:49;;;;;;;;;;;;;;;11.01;59.82;101278.31;4994451;28;19924;-65
2022/03/23 13:23:32;;;;;;;;;;;;;;;11.00;59.71;101273.06;4994692;28;19963;-64
2022/03/23 13:26:22;;;;;;;;;;;;;;;11.02;59.68;101271.41;5087595;27;2018980;-65
2022/03/23 13:29:10;;;;;;;;;;;;;;;11.02;59.63;101266.22;5173871;27;19948;-65
2022/03/23 13:32:02;;;;;;;;;;;;;;;11.01;60.02;101264.44;5158346;27;19972;-64
2022/03/23 13:34:51;;;;;;;;;;;;;;;11.03;60.06;101267.97;5158101;27;19972;-65
2022/03/23 13:37:51;;;;;;;;;;;;;;;11.05;59.74;101262.03;5173359;27;20304;-64
2022/03/23 13:43:43;;;;;;;;;;;;;;;11.09;59.61;101263.00;5173143;27;19925;-64
2022/03/23 13:46:27;;;;;;;;;;;;;;;11.10;59.62;101262.19;5158247;27;19926;-63
2022/03/23 13:49:14;;;;;;;;;;;;;;;11.09;59.94;101243.13;5173667;27;19933;-64
2022/03/23 13:52:00;;;;;;;;;;;;;;;11.09;59.44;101250.03;5173392;27;20377;-64
2022/03/23 13:54:44;;;;;;;;;;;;;;;11.07;59.59;101255.16;5157998;27;20014;-64
2022/03/23 13:57:29;;;;;;;;;;;;;;;11.07;59.65;101247.38;5157371;27;19926;-64
2022/03/23 14:00:24;;;;;;;;;;;;;;;11.08;59.53;101250.88;5157595;27;20015;-65
2022/03/23 14:03:09;;;;;;;;;;;;;;;11.11;59.52;101253.56;5157871;27;20017;-65
2022/03/23 14:06:11;;;;;;;;;;;;;;;11.10;59.39;101250.09;5172770;27;20376;-65
2022/03/23 14:08:56;;;;;;;;;;;;;;;11.10;59.52;101244.03;5157349;27;19930;-64
2022/03/23 14:14:39;;;;;;;;;;;;;;;11.12;59.92;101237.19;5158232;27;19930;-64
2022/03/23 14:17:27;;;;;;;;;;;;;;;11.09;59.52;101230.16;5157067;27;19926;-65
2022/03/23 14:20:12;;;;;;;;;;;;;;;11.09;59.44;101229.28;5157491;27;19926;-64
2022/03/23 14:22:57;;;;;;;;;;;;;;;11.08;59.56;101230.13;5156993;27;19972;-64
2022/03/23 14:25:41;;;;;;;;;;;;;;;11.08;59.54;101220.59;5156840;27;19971;-64
2022/03/23 14:28:25;;;;;;;;;;;;;;;11.10;59.52;101221.53;5172496;27;19968;-65
2022/03/23 14:31:09;;;;;;;;;;;;;;;11.10;59.59;101226.72;5157088;27;19925;-64
2022/03/23 14:34:11;;;;;;;;;;;;;;;11.12;59.64;101230.25;5172801;27;20013;-64
2022/03/23 14:37:13;;;;;;;;;;;;;;;11.13;59.71;101223.38;5163226;27;19930;-64
2022/03/23 14:40:00;;;;;;;;;;;;;;;11.12;59.60;101219.00;5158530;27;19925;-64
2022/03/23 14:42:44;;;;;;;;;;;;;;;11.12;59.43;101221.59;5142431;27;19926;-64
2022/03/23 14:45:44;;;;;;;;;;;;;;;11.10;59.32;101216.34;5142830;27;19926;-65
2022/03/23 14:48:30;;;;;;;;;;;;;;;11.10;59.82;101210.28;5143031;27;19968;-65
2022/03/23 14:51:14;;;;;;;;;;;;;;;11.09;59.87;101208.53;5142523;27;19925;-64
2022/03/23 14:53:58;;;;;;;;;;;;;;;11.08;59.63;101209.38;5158356;27;19926;-64